createdAt,value
2019-01-30T00:01:45.305Z,4.43
2019-01-30T00:04:13.225Z,4.63
2019-01-30T00:06:41.498Z,4.57
2019-01-30T00:09:09.739Z,4.90
2019-01-30T00:11:38.039Z,4.60
2019-01-30T00:14:05.677Z,4.73
2019-01-30T00:16:33.910Z,5.03
2019-01-30T00:21:35.944Z,4.10
2019-01-30T00:24:03.614Z,4.37
2019-01-30T00:26:50.880Z,4.30
2019-01-30T00:29:18.834Z,4.30
2019-01-30T00:31:46.802Z,5.10
2019-01-30T00:34:14.838Z,4.40
2019-01-30T00:36:43.058Z,4.93
2019-01-30T00:39:11.326Z,4.10
2019-01-30T00:41:39.618Z,4.47
2019-01-30T00:44:07.877Z,4.53
2019-01-30T00:46:35.525Z,4.30
2019-01-30T00:49:03.519Z,4.53
2019-01-30T00:51:31.704Z,4.20
2019-01-30T00:53:59.686Z,3.80
2019-01-30T00:56:28.078Z,4.57
2019-01-30T00:58:56.306Z,3.90
2019-01-30T01:01:24.988Z,4.50
2019-01-30T01:03:53.316Z,4.30
2019-01-30T01:06:21.641Z,4.30
2019-01-30T01:08:49.632Z,4.60
2019-01-30T01:11:17.657Z,3.93
2019-01-30T01:13:45.328Z,4.70
2019-01-30T01:16:12.973Z,4.50
2019-01-30T01:18:41.296Z,4.10
2019-01-30T01:21:09.258Z,4.30
2019-01-30T01:23:37.178Z,3.97
2019-01-30T01:26:04.818Z,4.47
2019-01-30T01:28:32.489Z,3.93
2019-01-30T01:31:00.409Z,4.30
2019-01-30T01:33:28.959Z,4.07
2019-01-30T01:35:56.971Z,3.83
2019-01-30T01:38:25.043Z,3.73
2019-01-30T01:40:52.993Z,3.90
2019-01-30T01:43:21.312Z,3.83
2019-01-30T01:45:49.767Z,4.10
2019-01-30T01:48:18.128Z,4.00
2019-01-30T01:56:07.152Z,3.53
2019-01-30T02:01:08.645Z,4.40
2019-01-30T02:03:36.649Z,3.70
2019-01-30T02:09:12.055Z,3.97
2019-01-30T02:11:40.630Z,4.03
2019-01-30T02:14:09.009Z,4.40
2019-01-30T02:16:37.340Z,4.37
2019-01-30T02:21:52.781Z,4.17
2019-01-30T02:24:20.754Z,4.80
2019-01-30T02:26:49.030Z,4.83
2019-01-30T02:29:17.297Z,4.30
2019-01-30T02:31:44.958Z,4.40
2019-01-30T02:34:13.237Z,3.90
2019-01-30T02:37:00.369Z,5.07
2019-01-30T02:39:28.755Z,4.40
2019-01-30T02:41:57.013Z,5.53
2019-01-30T02:44:24.897Z,4.60
2019-01-30T02:46:52.930Z,5.10
2019-01-30T02:49:20.872Z,4.40
2019-01-30T02:51:49.203Z,4.67
2019-01-30T02:54:17.245Z,5.10
2019-01-30T02:56:44.881Z,4.40
2019-01-30T02:59:12.870Z,4.70
2019-01-30T03:01:59.718Z,4.70
2019-01-30T03:04:27.556Z,4.80
2019-01-30T03:06:55.502Z,4.27
2019-01-30T03:09:23.822Z,3.93
2019-01-30T03:11:52.110Z,4.80
2019-01-30T03:14:20.482Z,4.63
2019-01-30T03:16:48.428Z,4.90
2019-01-30T03:19:16.704Z,4.83
2019-01-30T03:21:44.953Z,4.70
2019-01-30T03:24:12.617Z,4.33
2019-01-30T03:26:40.838Z,4.43
2019-01-30T03:29:09.213Z,4.10
2019-01-30T03:31:36.867Z,4.40
2019-01-30T03:34:05.224Z,4.10
2019-01-30T03:36:33.847Z,4.10
2019-01-30T03:39:01.760Z,4.20
2019-01-30T03:41:29.761Z,4.27
2019-01-30T03:43:57.746Z,4.37
2019-01-30T03:46:25.754Z,4.27
2019-01-30T03:48:53.950Z,4.07
2019-01-30T03:51:21.617Z,4.43
2019-01-30T03:53:50.134Z,4.30
2019-01-30T03:56:17.896Z,4.00
2019-01-30T03:58:45.830Z,4.17
2019-01-30T04:01:13.563Z,3.97
2019-01-30T04:03:41.226Z,4.00
2019-01-30T04:06:09.737Z,4.23
2019-01-30T04:08:37.717Z,3.63
2019-01-30T04:11:05.932Z,4.00
2019-01-30T04:13:33.885Z,4.33
2019-01-30T04:16:02.169Z,4.80
2019-01-30T04:21:03.642Z,4.00
2019-01-30T04:26:04.793Z,4.10
2019-01-30T04:28:32.742Z,4.30
2019-01-30T04:31:00.755Z,4.00
2019-01-30T04:33:29.403Z,4.70
2019-01-30T04:38:45.121Z,3.80
2019-01-30T04:41:13.093Z,4.30
2019-01-30T04:43:41.266Z,4.00
2019-01-30T04:46:09.458Z,3.80
2019-01-30T04:48:37.386Z,4.30
2019-01-30T04:51:24.676Z,3.83
2019-01-30T04:53:52.694Z,4.00
2019-01-30T04:56:21.289Z,4.03
2019-01-30T04:58:49.243Z,3.87
2019-01-30T05:01:16.899Z,4.20
2019-01-30T05:03:44.930Z,4.50
2019-01-30T05:06:12.599Z,4.00
2019-01-30T05:08:40.530Z,4.00
2019-01-30T05:11:08.801Z,4.10
2019-01-30T05:13:37.405Z,4.03
2019-01-30T05:16:05.625Z,4.60
2019-01-30T05:21:25.522Z,3.80
2019-01-30T05:23:53.588Z,3.93
2019-01-30T05:26:21.309Z,3.90
2019-01-30T05:28:49.878Z,4.07
2019-01-30T05:33:51.446Z,4.30
2019-01-30T05:36:19.146Z,3.80
2019-01-30T05:38:47.482Z,4.20
2019-01-30T05:41:15.417Z,4.00
2019-01-30T05:43:43.325Z,4.07
2019-01-30T05:46:10.993Z,3.90
2019-01-30T05:48:38.910Z,4.00
2019-01-30T05:51:07.234Z,3.90
2019-01-30T05:53:35.245Z,4.27
2019-01-30T05:56:03.537Z,4.37
2019-01-30T06:01:05.048Z,3.93
2019-01-30T06:03:33.317Z,4.10
2019-01-30T06:06:01.249Z,3.73
2019-01-30T06:08:29.262Z,4.33
2019-01-30T06:10:56.914Z,4.40
2019-01-30T06:13:24.868Z,4.10
2019-01-30T06:16:12.210Z,4.40
2019-01-30T06:18:40.169Z,4.83
2019-01-30T06:21:27.171Z,4.23
2019-01-30T06:23:55.586Z,4.13
2019-01-30T06:26:23.806Z,4.07
2019-01-30T06:28:51.741Z,4.50
2019-01-30T06:31:19.388Z,4.50
2019-01-30T06:33:47.757Z,4.70
2019-01-30T06:36:16.113Z,4.97
2019-01-30T06:38:44.714Z,5.80
2019-01-30T06:41:12.657Z,5.43
2019-01-30T06:43:40.305Z,6.20
2019-01-30T06:46:08.241Z,5.37
2019-01-30T06:48:36.480Z,6.10
2019-01-30T06:51:04.406Z,5.50
2019-01-30T06:53:32.642Z,5.60
2019-01-30T06:56:01.018Z,5.37
2019-01-30T06:58:29.289Z,5.50
2019-01-30T07:03:44.552Z,5.33
2019-01-30T07:06:12.505Z,5.57
2019-01-30T07:08:40.172Z,5.60
2019-01-30T07:11:10.606Z,5.77
2019-01-30T07:13:37.406Z,5.60
2019-01-30T07:16:05.363Z,5.87
2019-01-30T07:18:34.734Z,5.53
2019-01-30T07:23:49.905Z,5.90
2019-01-30T07:26:18.097Z,6.57
2019-01-30T07:29:06.970Z,6.10
2019-01-30T07:31:35.328Z,5.90
2019-01-30T07:34:03.417Z,5.90
2019-01-30T07:36:31.077Z,6.60
2019-01-30T07:38:59.060Z,5.50
2019-01-30T07:41:27.377Z,6.37
2019-01-30T07:43:55.107Z,6.20
2019-01-30T07:46:22.765Z,5.80
2019-01-30T07:51:20.502Z,5.97
2019-01-30T07:53:51.493Z,6.33
2019-01-30T07:56:19.933Z,5.80
2019-01-30T07:58:48.200Z,6.57
2019-01-30T08:04:23.981Z,6.33
2019-01-30T08:06:52.172Z,6.03
2019-01-30T08:09:19.845Z,5.80
2019-01-30T08:11:48.076Z,6.10
2019-01-30T08:14:15.742Z,6.40
2019-01-30T08:16:43.398Z,5.77
2019-01-30T08:19:11.375Z,6.43
2019-01-30T08:21:39.028Z,6.47
2019-01-30T08:26:54.281Z,6.40
2019-01-30T08:29:22.662Z,5.70
2019-01-30T08:31:52.069Z,6.30
2019-01-30T08:34:20.741Z,6.07
2019-01-30T08:36:49.084Z,6.07
2019-01-30T08:39:17.399Z,6.80
2019-01-30T08:41:45.582Z,6.13
2019-01-30T08:44:13.600Z,6.70
2019-01-30T08:46:42.221Z,6.10
2019-01-30T08:51:43.716Z,6.60
2019-01-30T08:56:52.504Z,5.50
2019-01-30T08:59:14.879Z,5.93
2019-01-30T09:01:43.330Z,6.10
2019-01-30T09:04:11.417Z,6.17
2019-01-30T09:06:40.633Z,6.27
2019-01-30T09:11:57.731Z,6.73
2019-01-30T09:14:25.770Z,6.70
2019-01-30T09:16:54.109Z,6.27
2019-01-30T09:19:22.286Z,5.70
2019-01-30T09:21:50.247Z,6.40
2019-01-30T09:24:18.226Z,6.50
2019-01-30T09:26:46.294Z,6.53
2019-01-30T09:29:13.947Z,6.23
2019-01-30T09:31:41.934Z,6.20
2019-01-30T09:34:09.890Z,5.97
2019-01-30T09:36:37.640Z,6.50
2019-01-30T09:42:00.634Z,6.73
2019-01-30T09:44:28.673Z,6.50
2019-01-30T09:46:56.982Z,6.50
2019-01-30T09:49:25.074Z,6.33
2019-01-30T09:51:53.135Z,7.00
2019-01-30T09:56:57.654Z,6.53
2019-01-30T09:59:26.066Z,6.40
2019-01-30T10:01:54.040Z,5.90
2019-01-30T10:04:41.063Z,6.50
2019-01-30T10:07:08.991Z,6.20
2019-01-30T10:14:58.755Z,6.40
2019-01-30T10:20:00.326Z,7.07
2019-01-30T10:22:32.989Z,6.63
2019-01-30T10:25:01.510Z,6.80
2019-01-30T10:27:29.910Z,6.73
2019-01-30T10:29:58.821Z,6.40
2019-01-30T10:32:27.647Z,7.20
2019-01-30T10:34:55.379Z,6.70
2019-01-30T10:37:23.030Z,6.40
2019-01-30T10:39:50.698Z,7.00
2019-01-30T10:42:19.066Z,7.13
2019-01-30T10:44:47.850Z,7.37
2019-01-30T10:47:35.091Z,7.50
2019-01-30T10:50:03.430Z,6.73
2019-01-30T10:52:31.098Z,7.47
2019-01-30T10:54:58.874Z,8.33
2019-01-30T10:57:26.891Z,7.17
2019-01-30T10:59:54.874Z,7.73
2019-01-30T11:02:22.947Z,8.50
2019-01-30T11:04:50.990Z,7.30
2019-01-30T11:12:26.493Z,7.87
2019-01-30T11:14:54.231Z,7.43
2019-01-30T11:17:22.158Z,8.30
2019-01-30T11:19:50.505Z,9.57
2019-01-30T11:22:18.422Z,10.40
2019-01-30T11:24:46.626Z,8.17
2019-01-30T11:27:14.865Z,7.53
2019-01-30T11:29:42.995Z,6.67
2019-01-30T11:34:57.830Z,7.90
2019-01-30T11:37:25.849Z,8.27
2019-01-30T11:39:54.069Z,10.37
2019-01-30T11:42:22.859Z,9.20
2019-01-30T11:49:59.555Z,9.57
2019-01-30T11:52:27.639Z,8.57
2019-01-30T11:54:55.643Z,8.60
2019-01-30T11:57:23.629Z,6.93
2019-01-30T11:59:51.909Z,8.43
2019-01-30T12:02:20.309Z,9.70
2019-01-30T12:04:48.402Z,8.67
2019-01-30T12:07:16.681Z,8.93
2019-01-30T12:09:44.673Z,7.30
2019-01-30T12:12:13.006Z,7.57
2019-01-30T12:14:40.673Z,7.40
2019-01-30T12:17:08.763Z,6.90
2019-01-30T12:19:37.137Z,7.80
2019-01-30T12:22:05.190Z,9.33
2019-01-30T12:24:33.198Z,7.83
2019-01-30T12:27:01.151Z,7.10
2019-01-30T12:29:29.217Z,7.73
2019-01-30T12:31:56.875Z,7.70
2019-01-30T12:34:28.287Z,7.20
2019-01-30T12:36:55.173Z,7.63
2019-01-30T12:39:23.155Z,7.37
2019-01-30T12:41:51.181Z,7.23
2019-01-30T12:44:19.190Z,7.90
2019-01-30T12:46:47.033Z,8.20
2019-01-30T12:49:14.698Z,8.43
2019-01-30T12:52:01.950Z,8.33
2019-01-30T12:54:30.282Z,8.50
2019-01-30T12:56:58.282Z,8.60
2019-01-30T12:59:26.259Z,8.80
2019-01-30T13:01:54.320Z,8.57
2019-01-30T13:04:22.466Z,8.60
2019-01-30T13:06:50.177Z,8.30
2019-01-30T13:09:18.548Z,8.87
2019-01-30T13:11:47.169Z,8.90
2019-01-30T13:14:15.392Z,9.37
2019-01-30T13:16:45.294Z,8.50
2019-01-30T13:19:19.145Z,9.77
2019-01-30T13:22:06.267Z,9.20
2019-01-30T13:24:38.468Z,8.90
2019-01-30T13:27:11.821Z,9.20
2019-01-30T13:29:39.804Z,8.77
2019-01-30T13:32:09.057Z,9.67
2019-01-30T13:34:37.415Z,10.10
2019-01-30T13:37:05.570Z,10.60
2019-01-30T13:42:07.542Z,9.83
2019-01-30T13:44:35.786Z,10.10
2019-01-30T13:47:03.895Z,9.47
2019-01-30T13:49:31.868Z,9.20
2019-01-30T13:52:06.922Z,8.80
2019-01-30T13:54:34.666Z,8.97
2019-01-30T13:57:02.867Z,8.50
2019-01-30T13:59:31.014Z,8.80
2019-01-30T14:01:59.357Z,9.27
2019-01-30T14:04:27.362Z,8.10
2019-01-30T14:06:55.366Z,8.07
2019-01-30T14:09:23.329Z,8.30
2019-01-30T14:11:51.397Z,8.83
2019-01-30T14:14:19.448Z,9.77
2019-01-30T14:16:47.475Z,9.37
2019-01-30T14:19:15.447Z,10.00
2019-01-30T14:21:43.855Z,9.63
2019-01-30T14:24:12.519Z,9.50
2019-01-30T14:26:40.505Z,9.50
2019-01-30T14:29:08.474Z,10.17
2019-01-30T14:31:37.129Z,10.87
2019-01-30T14:34:05.050Z,10.00
2019-01-30T14:36:32.736Z,11.17
2019-01-30T14:39:00.681Z,10.40
2019-01-30T14:41:28.353Z,11.13
2019-01-30T14:43:56.689Z,11.00
2019-01-30T14:46:24.396Z,11.30
2019-01-30T14:48:52.406Z,11.63
2019-01-30T14:51:20.082Z,11.67
2019-01-30T14:53:47.760Z,10.70
2019-01-30T14:56:16.319Z,11.57
2019-01-30T14:58:45.241Z,10.40
2019-01-30T15:01:13.489Z,12.33
2019-01-30T15:03:41.710Z,12.47
2019-01-30T15:08:43.429Z,13.43
2019-01-30T15:11:11.593Z,11.83
2019-01-30T15:16:36.548Z,10.93
2019-01-30T15:22:12.336Z,11.13
2019-01-30T15:24:39.991Z,11.57
2019-01-30T15:27:08.646Z,13.50
2019-01-30T15:29:36.813Z,12.37
2019-01-30T15:32:04.889Z,11.57
2019-01-30T15:34:32.562Z,12.00
2019-01-30T15:37:00.590Z,11.93
2019-01-30T15:39:28.663Z,12.20
2019-01-30T15:41:56.416Z,12.83
2019-01-30T15:44:25.475Z,14.83
2019-01-30T15:46:54.145Z,12.80
2019-01-30T15:49:41.514Z,12.47
2019-01-30T15:54:56.357Z,11.83
2019-01-30T15:57:24.086Z,11.70
2019-01-30T16:00:11.254Z,11.70
2019-01-30T16:02:39.193Z,12.13
2019-01-30T16:05:07.882Z,12.70
2019-01-30T16:07:36.278Z,12.30
2019-01-30T16:12:58.680Z,12.37
2019-01-30T16:18:22.305Z,12.37
2019-01-30T16:20:50.691Z,12.90
2019-01-30T16:23:37.537Z,13.00
2019-01-30T16:26:05.253Z,12.87
2019-01-30T16:28:33.758Z,13.60
2019-01-30T16:33:35.396Z,12.97
2019-01-30T16:36:03.798Z,14.00
2019-01-30T16:38:31.762Z,12.80
2019-01-30T16:40:59.832Z,13.90
2019-01-30T16:43:46.970Z,15.30
2019-01-30T16:46:14.982Z,14.40
2019-01-30T16:48:42.939Z,14.80
2019-01-30T16:51:10.586Z,14.23
2019-01-30T16:53:38.627Z,14.80
2019-01-30T16:58:53.885Z,14.70
2019-01-30T17:01:21.890Z,13.77
2019-01-30T17:03:49.892Z,14.00
2019-01-30T17:06:17.829Z,13.80
2019-01-30T17:08:45.794Z,16.17
2019-01-30T17:11:13.530Z,15.67
2019-01-30T17:13:41.629Z,15.70
2019-01-30T17:16:09.969Z,16.90
2019-01-30T17:18:37.980Z,19.82
2019-01-30T17:21:06.059Z,17.90
2019-01-30T17:23:33.954Z,17.50
2019-01-30T17:26:02.300Z,22.17
2019-01-30T17:28:30.326Z,18.80
2019-01-30T17:31:00.050Z,18.90
2019-01-30T17:33:28.255Z,18.57
2019-01-30T17:35:56.710Z,18.67
2019-01-30T17:38:25.287Z,18.53
2019-01-30T17:40:54.591Z,19.20
2019-01-30T17:43:22.251Z,19.73
2019-01-30T17:45:50.003Z,19.93
2019-01-30T17:51:25.538Z,20.80
2019-01-30T17:53:53.518Z,21.07
2019-01-30T17:56:21.681Z,20.83
2019-01-30T17:58:49.687Z,21.50
2019-01-30T18:01:18.132Z,20.90
2019-01-30T18:03:45.787Z,20.83
2019-01-30T18:06:13.501Z,20.77
2019-01-30T18:08:41.198Z,20.67
2019-01-30T18:11:27.935Z,20.80
2019-01-30T18:13:56.173Z,20.47
2019-01-30T18:16:26.745Z,20.30
2019-01-30T18:18:53.540Z,18.43
2019-01-30T18:21:21.825Z,19.97
2019-01-30T18:23:50.022Z,19.93
2019-01-30T18:26:17.933Z,18.37
2019-01-30T18:28:47.924Z,17.57
2019-01-30T18:31:15.873Z,17.93
2019-01-30T18:33:44.329Z,17.33
2019-01-30T18:36:12.479Z,16.90
2019-01-30T18:38:40.230Z,17.40
2019-01-30T18:41:08.618Z,17.00
2019-01-30T18:43:36.531Z,19.60
2019-01-30T18:46:04.397Z,16.60
2019-01-30T18:48:51.458Z,17.27
2019-01-30T18:51:19.994Z,16.27
2019-01-30T18:54:06.837Z,16.30
2019-01-30T18:56:36.528Z,16.10
2019-01-30T18:59:04.578Z,15.70
2019-01-30T19:01:32.861Z,14.20
2019-01-30T19:04:01.018Z,15.37
2019-01-30T19:06:28.688Z,15.87
2019-01-30T19:08:56.689Z,15.00
2019-01-30T19:11:24.400Z,15.50
2019-01-30T19:13:52.709Z,14.33
2019-01-30T19:16:20.654Z,13.40
2019-01-30T19:18:49.128Z,13.73
2019-01-30T19:21:18.550Z,13.47
2019-01-30T19:23:46.903Z,11.97
2019-01-30T19:26:15.410Z,12.90
2019-01-30T19:28:43.534Z,12.60
2019-01-30T19:31:11.189Z,13.10
2019-01-30T19:33:41.450Z,11.50
2019-01-30T19:36:09.489Z,11.60
2019-01-30T19:38:38.134Z,12.17
2019-01-30T19:41:06.487Z,12.07
2019-01-30T19:43:34.980Z,11.30
2019-01-30T19:46:03.367Z,10.47
2019-01-30T19:48:31.361Z,11.60
2019-01-30T19:51:01.523Z,10.80
2019-01-30T19:53:29.023Z,10.90
2019-01-30T19:58:31.206Z,9.37
2019-01-30T20:00:59.239Z,10.97
2019-01-30T20:03:31.191Z,10.00
2019-01-30T20:05:58.586Z,10.50
2019-01-30T20:08:26.606Z,10.67
2019-01-30T20:10:54.852Z,9.60
2019-01-30T20:13:22.912Z,10.10
2019-01-30T20:15:51.197Z,10.83
2019-01-30T20:18:18.865Z,10.33
2019-01-30T20:21:05.630Z,9.90
2019-01-30T20:23:33.561Z,9.80
2019-01-30T20:26:01.519Z,10.13
2019-01-30T20:28:48.574Z,9.57
2019-01-30T20:31:16.272Z,9.60
2019-01-30T20:33:44.339Z,10.10
2019-01-30T20:36:32.334Z,10.37
2019-01-30T20:39:00.029Z,10.03
2019-01-30T20:41:28.439Z,10.30
2019-01-30T20:43:56.089Z,10.17
2019-01-30T20:46:24.219Z,10.77
2019-01-30T20:48:52.230Z,10.83
2019-01-30T20:51:20.165Z,10.20
2019-01-30T20:53:48.229Z,10.80
2019-01-30T20:56:16.206Z,11.33
2019-01-30T20:58:44.381Z,10.80
2019-01-30T21:01:12.319Z,9.33
2019-01-30T21:03:40.604Z,10.30
2019-01-30T21:06:27.934Z,11.37
2019-01-30T21:08:55.902Z,9.40
2019-01-30T21:11:23.812Z,9.83
2019-01-30T21:13:51.482Z,10.30
2019-01-30T21:16:19.150Z,10.30
2019-01-30T21:19:05.914Z,10.07
2019-01-30T21:21:33.874Z,9.70
2019-01-30T21:24:02.205Z,10.17
2019-01-30T21:26:30.122Z,9.90
2019-01-30T21:28:58.596Z,9.60
2019-01-30T21:31:26.563Z,10.00
2019-01-30T21:33:54.725Z,8.73
2019-01-30T21:36:22.906Z,9.53
2019-01-30T21:38:50.977Z,8.73
2019-01-30T21:41:19.037Z,8.80
2019-01-30T21:43:46.881Z,8.73
2019-01-30T21:46:14.977Z,8.17
2019-01-30T21:48:43.258Z,8.70
2019-01-30T21:51:11.420Z,8.50
2019-01-30T21:53:39.349Z,8.10
2019-01-30T21:56:09.891Z,8.20
2019-01-30T21:58:37.162Z,7.90
2019-01-30T22:01:05.512Z,7.43
2019-01-30T22:06:27.589Z,7.00
2019-01-30T22:08:55.810Z,8.30
2019-01-30T22:11:23.457Z,6.80
2019-01-30T22:13:52.473Z,7.77
2019-01-30T22:16:20.782Z,7.33
2019-01-30T22:18:48.721Z,6.70
2019-01-30T22:21:16.937Z,6.70
2019-01-30T22:23:45.007Z,6.90
2019-01-30T22:26:13.061Z,6.77
2019-01-30T22:28:41.051Z,6.97
2019-01-30T22:31:09.006Z,6.70
2019-01-30T22:33:36.658Z,6.50
2019-01-30T22:36:04.438Z,6.20
2019-01-30T22:38:32.401Z,6.63
2019-01-30T22:41:00.153Z,5.70
2019-01-30T22:43:27.868Z,6.10
2019-01-30T22:45:56.028Z,5.70
2019-01-30T22:48:23.951Z,5.50
2019-01-30T22:50:52.308Z,5.70
2019-01-30T22:53:20.010Z,5.40
2019-01-30T22:55:47.657Z,5.63
2019-01-30T22:58:34.417Z,5.83
2019-01-30T23:01:23.947Z,5.80
2019-01-30T23:04:11.227Z,5.23
2019-01-30T23:06:58.005Z,5.93
2019-01-30T23:09:45.284Z,5.10
2019-01-30T23:12:32.297Z,4.33
2019-01-30T23:15:03.065Z,4.30
2019-01-30T23:17:50.059Z,4.40
2019-01-30T23:20:23.162Z,4.40
2019-01-30T23:23:09.905Z,4.33
2019-01-30T23:25:57.187Z,4.93
2019-01-30T23:28:44.182Z,4.40
2019-01-30T23:31:31.618Z,4.43
2019-01-30T23:34:07.385Z,4.80
2019-01-30T23:36:54.497Z,4.70
2019-01-30T23:39:41.758Z,4.13
2019-01-30T23:42:28.527Z,4.20
2019-01-30T23:45:15.542Z,4.40
2019-01-30T23:48:02.340Z,3.90
2019-01-30T23:50:41.522Z,3.80
2019-01-30T23:53:28.558Z,4.10
2019-01-30T23:56:15.818Z,4.10
2019-01-30T23:59:02.883Z,3.97
